Time;durP1;ratioP1;P1;durP2;ratioP2;P2;SDS_P1;SDS_P2;PMS_P1;PMS_P2;Temp;Humidity;BMP_temperature;BMP_pressure;BME280_temperature;BME280_humidity;BME280_pressure;Samples;Min_cycle;Max_cycle;Signal;HPM_P1;HPM_P2
2023/08/14 00:00:29;;;;;;;5.80;5.40;;;20.60;99.90;;;21.38;100.00;97982.28;10452162;28;20248;-81
2023/08/14 00:05:33;;;;;;;7.10;6.50;;;20.60;99.90;;;21.37;100.00;97983.97;10450498;28;20312;-78
2023/08/14 00:10:36;;;;;;;6.80;6.10;;;20.60;99.90;;;21.34;100.00;97978.69;10451505;28;20243;-79
2023/08/14 00:15:41;;;;;;;6.60;6.05;;;20.60;99.90;;;21.35;100.00;97970.06;10448604;28;20247;-80
2023/08/14 00:20:44;;;;;;;7.30;6.68;;;20.60;99.90;;;21.38;100.00;97964.06;10445274;28;20220;-78
2023/08/14 00:25:47;;;;;;;6.80;6.30;;;20.60;99.90;;;21.33;100.00;97961.34;10456837;28;20236;-78
2023/08/14 00:30:52;;;;;;;8.20;7.43;;;20.60;99.90;;;21.31;100.00;97956.13;10453107;28;20967;-78
2023/08/14 00:35:55;;;;;;;7.43;6.82;;;20.60;99.90;;;21.21;100.00;97961.16;10456626;28;20233;-78
2023/08/14 00:40:59;;;;;;;6.95;6.25;;;20.50;99.90;;;21.20;100.00;97960.25;10450562;28;20721;-79
2023/08/14 00:46:04;;;;;;;6.97;6.25;;;20.40;99.90;;;21.20;100.00;97962.00;10443660;28;20249;-79
2023/08/14 00:51:08;;;;;;;6.72;6.05;;;20.40;99.90;;;21.15;100.00;97962.81;10442929;28;20237;-79
2023/08/14 00:56:12;;;;;;;6.57;5.97;;;20.40;99.90;;;21.25;100.00;97965.56;10445791;28;20260;-79
2023/08/14 01:01:16;;;;;;;6.07;5.57;;;20.40;99.90;;;21.13;100.00;97958.44;10446958;28;20738;-78
2023/08/14 01:06:20;;;;;;;6.15;5.70;;;20.30;99.90;;;21.07;100.00;97964.41;10452641;28;20586;-80
2023/08/14 01:11:36;;;;;;;6.28;5.63;;;20.30;99.90;;;21.06;100.00;97949.66;10460185;28;20252;-80
2023/08/14 01:16:45;;;;;;;6.68;5.65;;;20.20;99.90;;;21.03;100.00;97962.59;10446619;28;20302;-78
2023/08/14 01:22:04;;;;;;;6.18;5.70;;;20.20;99.90;;;20.98;100.00;97972.03;10445335;28;20236;-78
2023/08/14 01:27:09;;;;;;;6.78;6.18;;;20.20;99.90;;;21.02;100.00;97973.81;10453975;28;20254;-78
2023/08/14 01:32:13;;;;;;;6.10;5.60;;;20.30;99.90;;;21.02;100.00;97965.16;10448148;28;20249;-79
2023/08/14 01:37:26;;;;;;;7.30;6.60;;;20.30;99.90;;;21.08;100.00;97960.94;10447444;28;20344;-81
2023/08/14 01:42:36;;;;;;;7.13;6.57;;;20.40;99.90;;;21.04;100.00;97953.94;10451393;28;20225;-79
2023/08/14 01:47:42;;;;;;;6.60;6.03;;;20.30;99.90;;;20.95;100.00;97940.81;10451049;28;20243;-80
2023/08/14 01:52:45;;;;;;;7.20;6.60;;;20.20;99.90;;;20.99;100.00;97947.78;10461403;28;20222;-79
2023/08/14 01:57:49;;;;;;;6.93;6.25;;;20.20;99.90;;;20.94;100.00;97939.03;10463401;28;20304;-81
2023/08/14 02:02:53;;;;;;;6.88;6.28;;;20.20;99.90;;;20.97;100.00;97949.47;10448417;28;20237;-80
2023/08/14 02:07:57;;;;;;;6.40;5.80;;;20.20;99.90;;;21.00;100.00;98004.09;10445729;28;20225;-80
2023/08/14 02:13:01;;;;;;;6.10;5.57;;;20.30;99.90;;;21.13;100.00;98037.28;10454848;28;20225;-78
2023/08/14 02:18:05;;;;;;;6.13;5.72;;;20.30;99.90;;;21.08;100.00;98006.84;10453169;28;20239;-79
2023/08/14 02:23:08;;;;;;;7.13;6.45;;;20.20;99.90;;;20.93;100.00;97990.13;10450909;28;20232;-80
2023/08/14 02:28:13;;;;;;;8.55;7.85;;;20.20;99.90;;;20.85;100.00;98020.28;10450571;28;20230;-78
2023/08/14 02:33:16;;;;;;;8.90;8.10;;;20.30;99.90;;;20.80;100.00;98028.84;10447734;28;20292;-78
2023/08/14 02:38:19;;;;;;;8.55;7.78;;;20.40;99.90;;;20.67;100.00;98044.22;10455241;28;20304;-79
2023/08/14 02:43:24;;;;;;;9.68;8.68;;;20.30;99.90;;;20.82;100.00;98037.56;10448591;28;20324;-79
2023/08/14 02:48:27;;;;;;;10.38;9.48;;;20.30;99.90;;;20.58;100.00;98007.66;10446833;28;20307;-80
2023/08/14 02:53:31;;;;;;;9.48;8.63;;;20.20;99.90;;;20.51;100.00;97994.47;10449321;28;20292;-79
2023/08/14 02:58:35;;;;;;;10.43;9.20;;;20.10;99.90;;;20.59;100.00;97980.84;10446939;28;20234;-80
2023/08/14 03:03:38;;;;;;;10.57;9.68;;;20.20;99.90;;;20.35;100.00;97969.94;10446969;28;20274;-79
2023/08/14 03:08:42;;;;;;;9.98;8.88;;;20.00;99.90;;;20.10;100.00;97940.00;10458299;28;20338;-79
2023/08/14 03:13:46;;;;;;;9.82;9.02;;;19.90;99.90;;;20.02;100.00;97924.25;10459335;28;20259;-79
2023/08/14 03:18:49;;;;;;;10.13;9.30;;;19.70;99.90;;;19.99;100.00;97913.81;10447000;28;20681;-80
2023/08/14 03:23:53;;;;;;;9.93;9.05;;;19.70;99.90;;;20.07;100.00;97899.28;10447664;28;20333;-79
2023/08/14 03:28:57;;;;;;;12.23;11.02;;;19.70;99.90;;;20.12;100.00;97899.41;10450764;28;20278;-81
2023/08/14 03:34:01;;;;;;;11.18;10.27;;;19.80;99.90;;;20.09;100.00;97902.81;10445314;28;20249;-81
2023/08/14 03:39:04;;;;;;;11.98;10.77;;;19.70;99.90;;;20.08;100.00;97913.13;10449906;28;20228;-80
2023/08/14 03:44:09;;;;;;;11.23;10.23;;;19.70;99.90;;;20.04;100.00;97914.81;10445628;28;20227;-81
2023/08/14 03:49:12;;;;;;;11.30;10.35;;;19.70;99.90;;;19.97;100.00;97918.09;10444076;28;20228;-79
2023/08/14 03:54:15;;;;;;;10.82;9.88;;;19.60;99.90;;;20.03;100.00;97920.84;10447764;28;20740;-79
2023/08/14 03:59:20;;;;;;;12.18;11.18;;;19.70;99.90;;;20.20;100.00;97918.56;10442493;28;20279;-79
2023/08/14 04:04:23;;;;;;;11.30;10.30;;;19.80;99.90;;;20.27;100.00;97925.66;10440839;28;20227;-79
2023/08/14 04:09:27;;;;;;;11.57;10.40;;;19.80;99.90;;;20.23;100.00;97908.25;10444963;28;20339;-80
2023/08/14 04:14:33;;;;;;;11.20;10.20;;;19.80;99.90;;;20.17;100.00;97911.63;10445960;28;20280;-80
2023/08/14 04:19:36;;;;;;;10.05;9.25;;;19.70;99.90;;;20.18;100.00;97904.72;10442655;28;20225;-80
2023/08/14 04:24:40;;;;;;;10.35;9.55;;;19.70;99.90;;;20.17;100.00;97905.53;10449442;28;20319;-80
2023/08/14 04:29:44;;;;;;;9.85;9.15;;;19.70;99.90;;;20.21;100.00;97904.75;10446053;28;20227;-80
2023/08/14 04:34:48;;;;;;;11.07;9.98;;;19.70;99.90;;;20.17;100.00;97909.03;10447931;28;20596;-80
2023/08/14 04:39:51;;;;;;;8.77;8.07;;;19.70;99.90;;;20.15;100.00;97913.31;10451835;28;20236;-80
2023/08/14 04:44:55;;;;;;;9.90;9.10;;;19.70;99.90;;;20.03;100.00;97910.47;10450177;28;20225;-81
2023/08/14 04:49:59;;;;;;;9.75;8.88;;;19.50;99.90;;;20.06;100.00;97900.16;10449549;28;20951;-80
2023/08/14 04:55:02;;;;;;;10.23;9.32;;;19.60;99.90;;;20.09;100.00;97900.22;10447231;28;20600;-79
2023/08/14 05:00:09;;;;;;;14.70;11.68;;;19.60;99.90;;;20.18;100.00;97902.97;10442191;28;20781;-80
2023/08/14 05:05:12;;;;;;;15.05;13.25;;;19.70;99.90;;;20.24;100.00;97900.50;10449585;28;20217;-81
2023/08/14 05:10:16;;;;;;;13.90;12.50;;;19.70;99.90;;;20.27;100.00;97914.38;10463356;28;20228;-80
2023/08/14 05:15:20;;;;;;;13.45;12.25;;;19.70;99.90;;;20.23;100.00;97914.34;10450605;28;20233;-81
2023/08/14 05:20:24;;;;;;;11.70;10.70;;;19.70;99.90;;;20.35;100.00;97925.81;10443641;28;20227;-79
2023/08/14 05:25:27;;;;;;;12.30;11.13;;;19.80;99.90;;;20.39;100.00;97925.88;10438767;28;20293;-79
2023/08/14 05:30:32;;;;;;;12.80;11.70;;;19.70;99.90;;;20.36;100.00;97919.75;10438458;28;20315;-79
2023/08/14 05:35:35;;;;;;;12.07;11.07;;;19.70;99.90;;;20.38;100.00;97920.66;10436339;28;20220;-79
2023/08/14 05:40:38;;;;;;;16.75;15.27;;;19.70;99.90;;;20.40;100.00;97926.75;10433106;28;20232;-79
2023/08/14 05:45:46;;;;;;;16.60;14.90;;;19.80;99.90;;;20.48;100.00;97917.38;10437881;28;20228;-79
2023/08/14 05:50:52;;;;;;;28.58;26.17;;;19.80;99.90;;;20.53;100.00;97918.38;10446712;28;20611;-81
2023/08/14 05:55:55;;;;;;;23.65;18.38;;;19.90;99.90;;;20.74;100.00;97922.22;10451795;28;20275;-80
2023/08/14 06:01:00;;;;;;;17.83;16.05;;;20.10;99.90;;;20.84;100.00;97906.81;10459151;28;20233;-80
2023/08/14 06:06:04;;;;;;;15.98;14.48;;;20.20;99.90;;;20.87;100.00;97898.22;10454236;28;20311;-79
2023/08/14 06:11:08;;;;;;;14.65;13.27;;;20.20;99.90;;;20.84;100.00;97903.34;10447615;28;20275;-79
2023/08/14 06:16:13;;;;;;;13.70;12.50;;;20.20;99.90;;;20.89;100.00;97907.78;10458860;28;20225;-79
2023/08/14 06:21:16;;;;;;;11.50;10.50;;;20.20;99.90;;;21.21;100.00;97888.38;10461921;28;20221;-80
2023/08/14 06:26:19;;;;;;;11.13;10.20;;;20.50;99.90;;;21.35;100.00;97881.66;10452602;28;20278;-80
2023/08/14 06:31:24;;;;;;;9.93;9.13;;;20.60;99.90;;;22.05;100.00;97871.31;10448111;28;20241;-80
2023/08/14 06:36:28;;;;;;;9.57;8.77;;;21.30;99.90;;;22.13;100.00;97879.22;10446414;28;20229;-80
2023/08/14 06:41:31;;;;;;;8.80;8.00;;;21.40;99.90;;;22.32;100.00;97882.94;10448479;28;20221;-79
2023/08/14 06:46:36;;;;;;;7.70;7.10;;;21.50;99.90;;;22.44;100.00;97886.56;10445644;28;20235;-82
2023/08/14 06:51:40;;;;;;;6.28;5.68;;;21.70;99.90;;;23.28;100.00;97890.78;10453436;28;20224;-81
2023/08/14 06:56:43;;;;;;;5.68;5.28;;;22.50;99.90;;;24.33;100.00;97892.25;10457521;28;20232;-80
2023/08/14 07:01:48;;;;;;;5.72;5.22;;;23.40;99.90;;;24.55;98.49;97895.78;10458153;28;20636;-82
2023/08/14 07:06:51;;;;;;;5.68;5.25;;;23.50;99.90;;;24.16;100.00;97892.19;10449385;28;20602;-81
2023/08/14 07:11:55;;;;;;;5.38;4.95;;;23.30;99.90;;;24.17;100.00;97888.69;10445828;28;20303;-80
2023/08/14 07:16:59;;;;;;;5.63;5.20;;;23.30;99.90;;;24.91;100.00;97889.75;10451268;28;20351;-80
2023/08/14 07:22:03;;;;;;;4.45;4.13;;;24.10;99.90;;;25.72;94.89;97865.25;10455687;28;20684;-82
2023/08/14 07:27:06;;;;;;;4.53;4.07;;;24.70;99.90;;;26.48;90.36;97867.53;10459467;28;20276;-82
2023/08/14 07:32:10;;;;;;;4.35;3.65;;;25.20;99.90;;;27.46;84.70;97862.44;10446816;28;20247;-80
2023/08/14 07:37:14;;;;;;;3.97;3.67;;;25.90;99.90;;;27.48;79.53;97864.16;10436764;28;20248;-81
2023/08/14 07:42:17;;;;;;;3.92;3.63;;;25.90;99.90;;;27.99;79.30;97866.25;10435781;28;20218;-80
2023/08/14 07:47:22;;;;;;;3.70;3.40;;;25.90;99.90;;;28.26;76.27;97868.50;10442694;28;20232;-79
2023/08/14 07:52:27;;;;;;;3.10;2.90;;;26.30;99.90;;;28.43;73.16;97876.19;10444221;28;20221;-80
2023/08/14 07:57:30;;;;;;;3.20;3.00;;;26.50;99.90;;;28.48;73.76;97868.25;10444110;28;20224;-81
2023/08/14 08:02:35;;;;;;;3.28;2.97;;;26.80;99.90;;;28.75;75.23;97865.19;10446417;28;20247;-82
2023/08/14 08:07:38;;;;;;;3.35;3.10;;;27.40;99.90;;;28.75;73.09;97870.47;10453261;28;20216;-81
2023/08/14 08:12:42;;;;;;;3.30;3.00;;;27.60;99.90;;;28.89;76.02;97869.38;10448625;28;20228;-80
2023/08/14 08:17:46;;;;;;;3.05;2.85;;;27.80;99.90;;;29.10;76.30;97876.09;10458198;28;20247;-82
2023/08/14 08:22:50;;;;;;;3.30;3.10;;;27.90;99.90;;;29.06;70.29;97882.31;10446697;28;20220;-82
2023/08/14 08:27:53;;;;;;;3.60;2.70;;;28.10;99.90;;;29.18;74.19;97887.34;10455349;28;20252;-82
2023/08/14 08:32:58;;;;;;;3.55;3.00;;;28.20;99.90;;;29.22;72.74;97890.78;10454841;28;20243;-82
2023/08/14 08:38:05;;;;;;;2.95;2.75;;;28.40;99.90;;;29.46;73.43;97903.56;10451422;28;20233;-83
2023/08/14 08:43:10;;;;;;;2.80;2.60;;;28.60;99.90;;;29.56;65.26;97889.34;10456984;28;20669;-84
2023/08/14 08:48:17;;;;;;;3.25;2.95;;;28.80;99.90;;;29.56;66.40;97891.06;10458125;28;20221;-82
2023/08/14 08:53:21;;;;;;;2.80;2.60;;;28.80;99.90;;;29.87;64.69;97888.75;10456469;28;20225;-83
2023/08/14 08:58:26;;;;;;;2.80;2.60;;;29.10;99.90;;;30.09;65.01;97878.66;10461870;28;20242;-83
2023/08/14 09:03:31;;;;;;;2.75;2.47;;;29.40;99.90;;;30.40;62.22;97889.44;10461962;28;20229;-83
2023/08/14 09:08:35;;;;;;;2.53;2.35;;;29.80;99.90;;;30.18;59.21;97888.13;10454098;28;20925;-84
2023/08/14 09:13:40;;;;;;;2.80;2.50;;;29.60;99.90;;;30.47;62.95;97895.44;10451317;28;20218;-83
2023/08/14 09:18:46;;;;;;;2.97;2.67;;;29.90;99.90;;;30.65;60.11;97894.19;10454019;28;20217;-83
2023/08/14 09:23:50;;;;;;;2.95;2.72;;;30.10;99.90;;;30.76;56.11;97902.69;10460798;28;20303;-83
2023/08/14 09:28:53;;;;;;;3.63;2.70;;;30.40;99.90;;;30.84;56.92;97892.00;10456566;28;20763;-83
2023/08/14 09:34:02;;;;;;;2.70;2.50;;;30.20;99.90;;;30.80;55.29;97879.81;10459665;28;20335;-83
2023/08/14 09:39:05;;;;;;;3.45;2.90;;;30.30;99.90;;;30.89;56.40;97872.50;10460071;28;20747;-83
2023/08/14 09:44:08;;;;;;;3.45;2.75;;;30.40;99.90;;;30.56;56.29;97874.13;10457603;28;20689;-83
2023/08/14 09:49:13;;;;;;;3.28;2.97;;;30.00;99.90;;;30.56;58.17;97873.25;10458182;28;20283;-84
2023/08/14 09:54:17;;;;;;;3.03;2.83;;;30.10;99.90;;;30.70;56.73;97868.53;10461839;28;20226;-82
2023/08/14 09:59:20;;;;;;;3.85;3.17;;;30.20;99.90;;;30.64;54.57;97863.41;10455189;28;20232;-83
2023/08/14 10:04:28;;;;;;;3.33;3.03;;;30.30;99.90;;;31.08;58.93;97861.50;10440773;28;20279;-83
2023/08/14 10:09:33;;;;;;;3.55;3.35;;;30.70;99.90;;;31.24;54.49;97859.34;10444208;28;20224;-82
2023/08/14 10:14:39;;;;;;;3.80;3.50;;;30.80;99.90;;;31.32;54.55;97860.88;10439708;28;20246;-83
2023/08/14 10:19:44;;;;;;;3.33;3.13;;;30.80;99.90;;;31.28;55.14;97846.00;10430810;28;20227;-81
2023/08/14 10:24:49;;;;;;;4.10;3.70;;;30.80;99.90;;;31.14;53.59;97853.44;10429533;28;20224;-82
2023/08/14 10:29:52;;;;;;;3.88;3.50;;;30.70;99.90;;;31.30;53.84;97841.53;10434269;28;20335;-81
2023/08/14 10:34:58;;;;;;;4.03;3.72;;;30.90;99.90;;;31.25;52.17;97832.88;10444291;28;20526;-83
2023/08/14 10:40:16;;;;;;;4.47;4.15;;;30.90;99.90;;;31.04;54.47;97834.28;10438013;28;20270;-82
2023/08/14 10:45:25;;;;;;;4.38;3.78;;;30.70;99.90;;;31.29;56.06;97834.53;10432513;28;20248;-81
2023/08/14 10:50:31;;;;;;;4.30;3.47;;;30.80;99.90;;;31.53;53.09;97840.09;10439740;28;20783;-81
2023/08/14 10:55:40;;;;;;;5.18;4.20;;;31.00;99.90;;;31.68;51.16;97842.31;10441325;28;20225;-83
2023/08/14 11:00:46;;;;;;;4.75;4.35;;;31.30;99.90;;;31.57;50.05;97829.41;10457418;28;20233;-82
2023/08/14 11:05:50;;;;;;;4.72;4.32;;;31.10;99.70;;;31.18;52.20;97826.03;10461591;28;20247;-82
2023/08/14 11:10:54;;;;;;;4.50;4.10;;;30.70;99.90;;;31.26;50.85;97824.03;10459903;28;20259;-83
2023/08/14 11:15:58;;;;;;;4.85;4.45;;;30.80;99.70;;;31.27;51.29;97825.78;10470290;28;20264;-82
2023/08/14 11:21:03;;;;;;;5.20;4.80;;;30.80;99.90;;;31.35;50.69;97807.09;10470477;28;20224;-82
2023/08/14 11:26:30;;;;;;;4.72;4.13;;;30.90;99.90;;;31.42;51.52;97812.19;10468517;28;20228;-82
2023/08/14 11:31:33;;;;;;;4.45;4.15;;;30.90;99.90;;;31.52;50.10;97811.94;10471990;28;20262;-82
2023/08/14 11:36:57;;;;;;;5.38;4.25;;;31.00;99.60;;;31.48;50.38;97807.63;10470760;28;20220;-82
2023/08/14 11:42:10;;;;;;;4.68;4.25;;;30.90;99.50;;;31.65;51.01;97810.69;10471741;28;20217;-83
2023/08/14 11:47:14;;;;;;;4.75;4.35;;;31.10;99.90;;;31.87;51.99;97806.50;10472956;28;20252;-82
2023/08/14 11:52:20;;;;;;;4.82;4.43;;;31.30;99.90;;;32.02;50.67;97806.97;10472606;28;20232;-82
2023/08/14 11:57:27;;;;;;;4.55;4.15;;;31.40;99.90;;;32.24;47.99;97808.06;10471104;28;20228;-82
2023/08/14 12:02:31;;;;;;;5.13;4.70;;;31.60;98.20;;;32.26;50.23;97803.59;10469963;28;20227;-82
2023/08/14 12:07:36;;;;;;;5.03;4.05;;;31.40;99.80;;;32.18;49.96;97807.41;10470538;28;20251;-82
2023/08/14 12:12:39;;;;;;;4.43;4.13;;;31.40;99.40;;;32.62;47.86;97789.28;10474683;28;20232;-82
2023/08/14 12:17:57;;;;;;;3.95;3.72;;;31.80;98.50;;;32.77;47.14;97806.47;10466635;28;20235;-82
2023/08/14 12:23:13;;;;;;;4.57;4.18;;;32.00;97.20;;;32.63;45.72;97818.34;10454344;28;20659;-81
2023/08/14 12:28:17;;;;;;;4.43;4.05;;;31.80;96.20;;;32.26;48.64;97822.13;10451415;28;20248;-82
2023/08/14 12:33:20;;;;;;;4.75;4.38;;;31.40;98.50;;;32.00;49.90;97817.63;10459007;28;20221;-82
2023/08/14 12:38:25;;;;;;;4.15;3.85;;;31.10;98.70;;;31.88;49.76;97804.75;10454684;28;20232;-80
2023/08/14 12:43:28;;;;;;;4.40;4.10;;;31.00;99.00;;;31.75;50.01;97814.78;10454997;28;20247;-82
2023/08/14 12:48:42;;;;;;;4.90;4.50;;;30.80;99.20;;;31.64;51.09;97819.50;10449987;28;20243;-82
2023/08/14 12:53:47;;;;;;;4.70;3.92;;;30.70;99.90;;;31.52;52.15;97817.22;10456179;28;20278;-82
2023/08/14 12:58:50;;;;;;;4.28;3.97;;;30.50;99.90;;;31.71;49.82;97836.94;10458662;28;20228;-83
2023/08/14 13:03:56;;;;;;;4.35;3.92;;;30.70;99.10;;;31.64;51.43;97851.22;10456918;28;20225;-82
2023/08/14 13:09:04;;;;;;;5.53;4.25;;;30.60;99.40;;;31.45;56.21;97852.63;10446659;28;20513;-81
2023/08/14 13:14:08;;;;;;;4.88;4.47;;;30.40;99.90;;;31.22;56.52;97862.03;10443176;28;20974;-83
2023/08/14 13:19:11;;;;;;;5.30;4.80;;;30.10;99.90;;;30.89;58.43;97840.84;10440418;28;20254;-82
2023/08/14 13:24:15;;;;;;;5.13;4.72;;;29.80;99.90;;;30.55;62.18;97846.00;10451833;28;20596;-82
2023/08/14 13:29:19;;;;;;;5.00;4.57;;;29.50;99.90;;;30.14;67.42;97849.56;10451770;28;20268;-82
2023/08/14 13:34:22;;;;;;;6.40;5.22;;;29.10;99.90;;;29.77;78.20;97851.19;10447321;28;20809;-82
2023/08/14 13:39:27;;;;;;;5.30;4.90;;;28.80;99.90;;;29.38;83.24;97827.28;10447066;28;20229;-82
2023/08/14 13:44:30;;;;;;;5.85;5.35;;;28.50;99.90;;;29.11;84.09;97839.22;10443868;28;20251;-82
2023/08/14 13:49:33;;;;;;;5.45;4.95;;;28.20;99.90;;;28.93;84.94;97835.09;10448571;28;20252;-82
2023/08/14 13:54:38;;;;;;;6.68;5.25;;;28.00;99.90;;;28.51;88.59;97831.38;10448340;28;20271;-81
2023/08/14 13:59:42;;;;;;;6.47;5.88;;;27.70;99.90;;;28.56;92.21;97841.81;10445950;28;20220;-81
2023/08/14 14:04:45;;;;;;;6.88;6.28;;;27.70;99.90;;;28.51;91.95;97827.00;10466097;28;20284;-83
2023/08/14 14:09:53;;;;;;;6.93;6.32;;;27.60;99.90;;;28.59;87.33;97826.00;10467363;28;20313;-81
2023/08/14 14:14:56;;;;;;;5.85;5.45;;;27.80;99.90;;;29.03;81.66;97809.50;10471188;28;20303;-82
2023/08/14 14:20:00;;;;;;;5.50;5.00;;;28.20;99.90;;;29.48;77.50;97787.63;10465191;28;20286;-81
2023/08/14 14:25:06;;;;;;;5.18;4.80;;;28.50;99.90;;;29.73;75.02;97781.00;10455678;28;20228;-82
2023/08/14 14:30:11;;;;;;;5.32;4.90;;;28.90;99.90;;;29.71;74.88;97776.66;10465343;28;20236;-80
2023/08/14 14:35:14;;;;;;;5.80;5.30;;;28.80;99.90;;;29.97;73.56;97768.19;10471720;28;20251;-80
2023/08/14 14:40:19;;;;;;;5.55;5.07;;;29.10;99.90;;;30.06;72.71;97763.56;10462774;28;20252;-83
2023/08/14 14:45:22;;;;;;;5.38;4.85;;;29.20;99.90;;;30.13;73.61;97763.41;10467030;28;20232;-83
2023/08/14 14:50:36;;;;;;;5.15;4.75;;;29.30;99.90;;;30.03;75.43;97768.06;10452263;28;20233;-84
2023/08/14 14:55:40;;;;;;;5.50;4.97;;;29.10;99.90;;;30.40;72.54;97791.84;10468897;28;20692;-82
2023/08/14 15:00:45;;;;;;;5.78;5.05;;;29.30;99.90;;;30.44;72.74;97805.81;10458212;28;20232;-81
2023/08/14 15:05:50;;;;;;;6.03;4.65;;;29.50;99.90;;;30.64;71.18;97806.22;10457952;28;20236;-83
2023/08/14 15:10:55;;;;;;;5.10;4.70;;;29.50;99.90;;;30.67;69.70;97802.63;10462479;28;20360;-82
2023/08/14 15:15:58;;;;;;;5.60;5.05;;;29.40;99.90;;;30.44;71.22;97792.63;10457524;28;20319;-82
2023/08/14 15:21:02;;;;;;;4.88;4.47;;;29.40;99.90;;;30.36;69.99;97770.84;10460474;28;20216;-83
2023/08/14 15:26:06;;;;;;;5.28;4.88;;;29.20;99.90;;;30.14;71.72;97754.63;10461251;28;20247;-84
2023/08/14 15:31:10;;;;;;;5.03;4.63;;;29.00;99.90;;;29.99;74.01;97751.44;10451198;28;20260;-84
2023/08/14 15:36:14;;;;;;;5.70;5.15;;;29.00;99.90;;;29.99;73.95;97745.28;10457697;28;20236;-82
2023/08/14 15:41:19;;;;;;;4.95;4.60;;;28.90;99.90;;;30.03;74.95;97744.31;10450595;28;20255;-81
2023/08/14 15:46:23;;;;;;;4.72;4.40;;;29.10;99.90;;;30.27;71.29;97748.19;10459769;28;20267;-84
2023/08/14 15:51:26;;;;;;;5.50;5.00;;;29.20;99.90;;;30.41;70.33;97743.44;10468549;28;20227;-82
2023/08/14 15:56:31;;;;;;;5.25;4.82;;;29.40;99.90;;;30.34;70.63;97744.50;10453264;28;20316;-82
2023/08/14 16:01:34;;;;;;;5.25;4.75;;;29.30;99.90;;;30.22;69.03;97739.53;10466255;28;20601;-83
2023/08/14 16:06:38;;;;;;;5.03;4.57;;;29.20;99.90;;;30.24;67.29;97745.63;10463976;28;20225;-85
2023/08/14 16:11:42;;;;;;;4.97;4.57;;;29.20;99.90;;;30.18;64.10;97732.53;10464670;28;20259;-83
2023/08/14 16:16:45;;;;;;;5.20;4.80;;;29.20;99.90;;;30.12;64.17;97732.69;10452644;28;20235;-84
2023/08/14 16:21:50;;;;;;;5.18;4.78;;;29.20;99.90;;;29.96;65.71;97735.69;10458120;28;20224;-83
2023/08/14 16:26:54;;;;;;;5.80;5.35;;;29.00;99.90;;;29.75;68.65;97733.50;10457367;28;20231;-84
2023/08/14 16:32:00;;;;;;;5.32;4.93;;;28.70;99.90;;;29.79;67.31;97740.44;10459796;28;20231;-83
2023/08/14 16:37:03;;;;;;;5.40;4.90;;;28.70;99.90;;;29.60;66.68;97735.53;10457922;28;20730;-83
2023/08/14 16:42:08;;;;;;;5.40;4.90;;;28.70;99.90;;;29.39;69.40;97728.09;10463644;28;20232;-83
2023/08/14 16:47:12;;;;;;;5.38;5.03;;;28.40;99.90;;;29.50;65.75;97733.13;10467165;28;20224;-83
2023/08/14 16:52:16;;;;;;;5.00;4.70;;;28.50;99.90;;;29.40;67.28;97735.09;10466070;28;20254;-82
2023/08/14 16:57:20;;;;;;;5.47;5.07;;;28.40;99.90;;;29.31;69.58;97743.19;10454790;28;20256;-83
2023/08/14 17:02:26;;;;;;;6.15;5.10;;;28.30;99.90;;;29.09;67.53;97730.44;10455983;28;20232;-81
2023/08/14 17:07:29;;;;;;;5.50;5.10;;;28.30;99.90;;;29.22;69.21;97740.72;10450177;28;20252;-83
2023/08/14 17:12:34;;;;;;;5.88;5.38;;;28.30;99.90;;;29.08;71.23;97744.50;10451029;28;20253;-84
2023/08/14 17:17:38;;;;;;;5.40;5.03;;;28.10;99.90;;;28.86;72.84;97741.34;10459481;28;20238;-81
2023/08/14 17:22:42;;;;;;;6.18;5.35;;;27.90;99.90;;;28.73;74.56;97748.59;10460998;28;20282;-85
2023/08/14 17:27:47;;;;;;;5.60;5.10;;;27.80;99.90;;;28.61;76.18;97755.81;10455522;28;20267;-84
2023/08/14 17:32:50;;;;;;;5.97;5.47;;;27.70;99.90;;;28.42;78.32;97752.63;10449936;28;20224;-84
2023/08/14 17:37:56;;;;;;;6.20;5.63;;;27.50;99.90;;;28.32;80.45;97751.00;10449950;28;20228;-83
2023/08/14 17:43:00;;;;;;;5.72;5.22;;;27.30;99.90;;;28.19;83.63;97747.72;10450340;28;20280;-82
2023/08/14 17:48:04;;;;;;;6.50;5.90;;;27.20;99.90;;;28.06;85.34;97755.75;10450587;28;20235;-83
2023/08/14 17:53:08;;;;;;;7.40;6.00;;;27.10;99.90;;;27.86;88.16;97752.53;10444176;28;20231;-82
2023/08/14 17:58:12;;;;;;;6.82;6.15;;;26.90;99.90;;;27.69;89.23;97757.97;10440481;28;20229;-82
2023/08/14 18:03:16;;;;;;;6.70;6.10;;;26.70;99.90;;;27.51;91.06;97756.47;10445686;28;20654;-83
2023/08/14 18:08:20;;;;;;;7.13;6.20;;;26.50;99.90;;;27.41;92.51;97754.81;10441897;28;20710;-83
2023/08/14 18:13:27;;;;;;;8.45;6.30;;;26.50;99.90;;;27.26;93.73;97766.38;10453605;28;20324;-83
2023/08/14 18:18:31;;;;;;;6.82;6.22;;;26.30;99.90;;;27.07;94.58;97773.56;10445220;28;22277;-83
2023/08/14 18:23:34;;;;;;;6.25;5.75;;;26.20;99.90;;;27.05;94.89;97780.56;10448393;28;20224;-82
2023/08/14 18:28:39;;;;;;;7.20;6.05;;;26.10;99.90;;;26.99;95.32;97779.75;10442013;28;20275;-82
2023/08/14 18:33:42;;;;;;;7.68;6.63;;;26.00;99.90;;;26.93;95.64;97784.19;10441193;28;20228;-83
2023/08/14 18:38:45;;;;;;;6.80;6.20;;;26.00;99.90;;;26.86;96.24;97782.47;10438330;28;20224;-83
2023/08/14 18:43:50;;;;;;;6.80;6.30;;;25.90;99.90;;;26.79;96.94;97786.06;10438674;28;20282;-83
2023/08/14 18:48:54;;;;;;;7.15;6.55;;;25.90;99.90;;;26.65;97.80;97786.16;10448649;28;20240;-81
2023/08/14 18:53:58;;;;;;;7.20;6.50;;;25.70;99.90;;;26.49;98.89;97795.00;10446098;28;20225;-82
2023/08/14 18:59:04;;;;;;;7.50;6.82;;;25.60;99.90;;;26.32;99.43;97795.13;10452024;28;20233;-83
2023/08/14 19:04:08;;;;;;;7.28;6.65;;;25.40;99.90;;;26.28;99.04;97798.66;10449833;28;20255;-81
2023/08/14 19:09:11;;;;;;;7.20;6.70;;;25.40;99.90;;;26.12;99.29;97802.22;10449900;28;20280;-83
2023/08/14 19:14:15;;;;;;;7.25;6.55;;;25.20;99.90;;;25.99;100.00;97801.44;10448493;28;20236;-82
2023/08/14 19:19:19;;;;;;;6.82;6.40;;;25.10;99.90;;;25.91;100.00;97808.47;10442973;28;20224;-83
2023/08/14 19:24:22;;;;;;;7.47;6.82;;;25.00;99.90;;;25.76;100.00;97804.16;10451440;28;20288;-83
2023/08/14 19:29:27;;;;;;;8.75;6.93;;;24.90;99.90;;;25.63;100.00;97812.03;10449016;28;20248;-83
2023/08/14 19:34:30;;;;;;;7.60;6.85;;;24.70;99.90;;;25.56;100.00;97819.94;10450661;28;20232;-83
2023/08/14 19:39:33;;;;;;;7.38;6.78;;;24.70;99.90;;;25.48;100.00;97830.41;10457034;28;20236;-84
2023/08/14 19:44:38;;;;;;;7.90;6.90;;;24.50;99.90;;;25.41;100.00;97826.09;10449033;28;20225;-81
2023/08/14 19:49:41;;;;;;;7.88;7.20;;;24.40;99.90;;;25.25;100.00;97827.84;10453583;28;20231;-82
2023/08/14 19:54:44;;;;;;;7.50;6.80;;;24.30;99.90;;;25.15;100.00;97831.34;10454038;28;20596;-81
2023/08/14 19:59:49;;;;;;;7.35;6.85;;;24.20;99.90;;;25.04;100.00;97835.69;10444465;28;20252;-79
2023/08/14 20:04:54;;;;;;;8.10;7.50;;;24.10;99.90;;;24.93;100.00;97825.25;10444468;28;20826;-79
2023/08/14 20:09:58;;;;;;;8.00;7.30;;;24.00;99.90;;;24.76;100.00;97821.75;10455392;28;20639;-79
2023/08/14 20:15:05;;;;;;;8.30;7.70;;;23.90;99.90;;;24.72;100.00;97826.09;10453267;28;20231;-79
2023/08/14 20:20:09;;;;;;;8.38;7.65;;;23.80;99.90;;;24.72;100.00;97824.38;10458142;28;20316;-78
2023/08/14 20:25:13;;;;;;;8.55;7.78;;;23.80;99.90;;;24.56;100.00;97820.00;10460326;28;20296;-79
2023/08/14 20:30:17;;;;;;;8.15;7.40;;;23.70;99.90;;;24.50;100.00;97830.47;10450388;28;20580;-79
2023/08/14 20:35:21;;;;;;;8.50;7.72;;;23.60;99.90;;;24.49;100.00;97823.47;10454543;28;20229;-80
2023/08/14 20:40:24;;;;;;;8.55;7.85;;;23.50;99.90;;;24.34;100.00;97823.41;10451453;28;20221;-79
2023/08/14 20:45:34;;;;;;;9.05;8.23;;;23.40;99.90;;;24.26;100.00;97816.44;10448421;28;20239;-79
2023/08/14 20:50:37;;;;;;;8.30;7.70;;;23.40;99.90;;;24.14;100.00;97826.84;10445307;28;20234;-79
2023/08/14 20:55:41;;;;;;;8.20;7.50;;;23.20;99.90;;;24.10;100.00;97830.34;10446549;28;20872;-79